Time;durP1;ratioP1;P1;durP2;ratioP2;P2;SDS_P1;SDS_P2;PMS_P1;PMS_P2;Temp;Humidity;BMP_temperature;BMP_pressure;BME280_temperature;BME280_humidity;BME280_pressure;Samples;Min_cycle;Max_cycle;Signal;HPM_P1;HPM_P2
2022/09/29 00:02:08;;;;;;;11.93;8.15;;;;;;;10.27;66.87;99888.69;5089707;28;20410;-56
2022/09/29 00:04:34;;;;;;;9.38;7.75;;;;;;;10.26;66.71;99898.13;5080435;28;20089;-57
2022/09/29 00:06:59;;;;;;;9.60;7.30;;;;;;;10.25;66.68;99901.97;5086953;28;20145;-57
2022/09/29 00:09:24;;;;;;;10.90;8.23;;;;;;;10.24;66.45;99903.06;5093055;28;20032;-57
2022/09/29 00:11:53;;;;;;;8.82;7.82;;;;;;;10.15;67.06;99894.47;5076885;28;20439;-57
2022/09/29 00:14:18;;;;;;;10.02;8.65;;;;;;;10.14;66.67;99897.47;5076495;28;20024;-57
2022/09/29 00:16:45;;;;;;;9.35;8.40;;;;;;;10.10;66.78;99894.44;5090867;28;20032;-56
2022/09/29 00:19:10;;;;;;;10.70;8.13;;;;;;;10.10;66.76;99902.78;5093685;28;20082;-58
2022/09/29 00:21:36;;;;;;;11.52;7.88;;;;;;;10.09;66.43;99899.13;5078241;28;20028;-57
2022/09/29 00:24:01;;;;;;;10.18;7.43;;;;;;;10.04;65.98;99901.91;5085266;28;20491;-57
2022/09/29 00:26:26;;;;;;;8.27;7.18;;;;;;;10.01;66.21;99893.31;5087728;28;20142;-57
2022/09/29 00:28:55;;;;;;;11.02;7.72;;;;;;;9.98;66.08;99900.25;5082233;28;20051;-57
2022/09/29 00:31:21;;;;;;;12.55;7.70;;;;;;;9.98;65.84;99896.59;5079372;28;20055;-56
2022/09/29 00:33:47;;;;;;;8.65;7.65;;;;;;;9.95;65.78;99891.63;5086590;28;20028;-57
2022/09/29 00:36:14;;;;;;;10.60;8.02;;;;;;;9.93;65.90;99891.88;5076715;28;20039;-56
2022/09/29 00:38:42;;;;;;;9.00;7.88;;;;;;;9.92;66.11;99886.63;5084833;28;20028;-57
2022/09/29 00:41:16;;;;;;;8.57;7.60;;;;;;;9.87;65.89;99897.72;5084179;28;20028;-56
2022/09/29 00:44:11;;;;;;;10.65;7.78;;;;;;;9.93;66.21;99889.13;5072896;28;20070;-57
2022/09/29 00:46:48;;;;;;;8.82;7.95;;;;;;;9.87;66.11;99895.78;5081977;28;20455;-56
2022/09/29 00:49:18;;;;;;;10.85;8.55;;;;;;;9.83;65.73;99895.47;5080768;28;20040;-56
2022/09/29 00:51:58;;;;;;;14.75;8.10;;;;;;;9.82;65.90;99890.19;5088389;28;20081;-56
2022/09/29 00:54:28;;;;;;;8.32;7.53;;;;;;;9.75;66.25;99893.22;5063303;28;20028;-56
2022/09/29 00:56:55;;;;;;;11.40;8.07;;;;;;;9.77;66.28;99895.72;5083444;28;20111;-56
2022/09/29 00:59:30;;;;;;;9.20;7.55;;;;;;;9.75;66.29;99895.16;5084971;28;20470;-56
2022/09/29 01:01:56;;;;;;;10.10;7.85;;;;;;;9.77;66.26;99895.72;5088247;28;20036;-56
2022/09/29 01:04:22;;;;;;;9.15;7.65;;;;;;;9.71;66.00;99896.81;5087457;28;20012;-56
2022/09/29 01:06:52;;;;;;;8.63;7.80;;;;;;;9.67;65.81;99893.75;5076289;28;20034;-56
2022/09/29 01:09:22;;;;;;;9.38;8.10;;;;;;;9.69;66.12;99883.22;5092495;28;20562;-57
2022/09/29 01:11:48;;;;;;;10.90;8.82;;;;;;;9.69;65.90;99877.69;5075817;28;20115;-56
2022/09/29 01:14:14;;;;;;;9.40;7.93;;;;;;;9.65;66.32;99884.03;5087787;28;20120;-57
2022/09/29 01:16:40;;;;;;;9.18;8.23;;;;;;;9.64;65.83;99882.38;5079250;28;20016;-56
2022/09/29 01:19:10;;;;;;;10.38;7.68;;;;;;;9.57;65.78;99885.38;5080350;28;20032;-57
2022/09/29 01:22:00;;;;;;;10.60;7.72;;;;;;;9.59;66.16;99884.03;5085612;28;20514;-57
2022/09/29 01:24:47;;;;;;;9.38;7.53;;;;;;;9.65;66.16;99886.81;5062980;28;20024;-56
2022/09/29 01:27:45;;;;;;;10.73;8.00;;;;;;;9.59;66.13;99889.56;5085323;28;20035;-56
2022/09/29 01:30:18;;;;;;;7.93;7.13;;;;;;;9.54;65.44;99891.47;5058697;28;20075;-57
2022/09/29 01:33:14;;;;;;;8.00;7.22;;;;;;;9.61;65.77;99885.69;5084145;28;20420;-56
2022/09/29 01:35:52;;;;;;;8.45;7.65;;;;;;;9.52;65.63;99894.50;5087577;28;20514;-56
2022/09/29 01:38:24;;;;;;;8.95;8.07;;;;;;;9.49;66.29;99891.44;5060525;28;20520;-57
2022/09/29 01:40:58;;;;;;;9.40;8.27;;;;;;;9.47;65.73;99891.72;5082318;28;20031;-56
2022/09/29 01:43:30;;;;;;;9.55;8.38;;;;;;;9.47;66.15;99896.41;5053497;28;20036;-56
2022/09/29 01:46:06;;;;;;;9.10;7.40;;;;;;;9.46;65.51;99892.81;5085433;28;20032;-56
2022/09/29 01:48:37;;;;;;;11.30;7.63;;;;;;;9.44;65.78;99889.47;5091337;28;20016;-57
2022/09/29 01:51:09;;;;;;;8.80;7.68;;;;;;;9.41;65.31;99890.00;5081218;28;20071;-57
2022/09/29 01:53:40;;;;;;;9.70;7.97;;;;;;;9.39;65.64;99894.16;5086735;28;20085;-57
2022/09/29 01:56:15;;;;;;;8.52;7.72;;;;;;;9.35;65.83;99893.84;5074352;28;20081;-56
2022/09/29 01:58:52;;;;;;;8.82;7.65;;;;;;;9.33;65.88;99890.53;5083990;28;20032;-56
2022/09/29 02:01:20;;;;;;;9.07;8.18;;;;;;;9.29;65.42;99897.72;5082028;28;20031;-57
2022/09/29 02:03:54;;;;;;;8.52;7.63;;;;;;;9.27;65.58;99894.34;5091850;28;20166;-57
2022/09/29 02:06:26;;;;;;;9.82;7.60;;;;;;;9.31;65.66;99899.13;5061025;28;20028;-57
2022/09/29 02:08:58;;;;;;;8.70;7.75;;;;;;;9.26;65.73;99896.28;5081675;28;20028;-58
2022/09/29 02:11:25;;;;;;;9.77;7.72;;;;;;;9.22;65.08;99894.34;5085263;28;20028;-58
2022/09/29 02:13:59;;;;;;;8.88;7.90;;;;;;;9.22;65.39;99892.41;5074842;28;20029;-58
2022/09/29 02:16:29;;;;;;;9.05;7.78;;;;;;;9.19;65.88;99898.47;5089173;28;20119;-58
2022/09/29 02:19:00;;;;;;;11.25;8.60;;;;;;;9.18;65.54;99888.50;5080764;28;20024;-57
2022/09/29 02:21:27;;;;;;;9.65;8.63;;;;;;;9.18;65.70;99895.97;5079085;28;20024;-57
2022/09/29 02:23:53;;;;;;;10.82;8.77;;;;;;;9.20;65.56;99891.03;5074112;28;20025;-57
2022/09/29 02:26:20;;;;;;;9.20;8.30;;;;;;;9.17;65.96;99895.16;5088113;28;20485;-57
2022/09/29 02:28:46;;;;;;;10.02;8.75;;;;;;;9.15;66.63;99897.31;5083473;28;20410;-57
2022/09/29 02:31:12;;;;;;;10.93;9.25;;;;;;;9.16;67.28;99895.41;5082617;28;20118;-57
2022/09/29 02:33:37;;;;;;;11.35;8.93;;;;;;;9.15;66.65;99897.31;5094052;28;20042;-57
2022/09/29 02:36:39;;;;;;;11.57;9.05;;;;;;;9.25;67.18;99899.34;5093049;28;20028;-57
2022/09/29 02:39:07;;;;;;;10.85;9.07;;;;;;;9.19;66.69;99897.63;5083469;28;20036;-57
2022/09/29 02:42:08;;;;;;;12.25;9.55;;;;;;;9.26;66.25;99895.47;5071658;28;20408;-57
2022/09/29 02:44:50;;;;;;;13.07;9.05;;;;;;;9.19;66.86;99892.09;5081304;28;20036;-58
2022/09/29 02:47:46;;;;;;;11.13;9.23;;;;;;;9.23;66.29;99901.53;5092239;28;20110;-57
2022/09/29 02:50:30;;;;;;;9.82;8.77;;;;;;;9.21;66.50;99898.22;5062190;28;20323;-57
2022/09/29 02:53:33;;;;;;;12.20;9.15;;;;;;;9.18;66.26;99901.50;5085346;28;20414;-57
2022/09/29 02:56:22;;;;;;;12.07;9.38;;;;;;;9.19;66.40;99892.94;5091584;28;20038;-58
2022/09/29 02:59:00;;;;;;;10.30;9.15;;;;;;;9.12;66.36;99900.66;5082801;28;20092;-57
2022/09/29 03:01:29;;;;;;;10.90;9.18;;;;;;;9.05;66.46;99898.09;5091623;28;20107;-57
2022/09/29 03:03:54;;;;;;;10.32;9.18;;;;;;;9.06;66.47;99902.53;5093541;28;20024;-57
2022/09/29 03:06:20;;;;;;;10.50;9.15;;;;;;;9.05;66.01;99908.34;5078947;28;20037;-57
2022/09/29 03:08:45;;;;;;;10.27;9.05;;;;;;;9.03;66.77;99907.78;5086408;28;20102;-57
2022/09/29 03:11:10;;;;;;;11.45;9.02;;;;;;;9.04;65.99;99898.38;5086471;28;20123;-57
2022/09/29 03:13:36;;;;;;;9.52;8.70;;;;;;;9.00;66.23;99898.09;5078494;28;20043;-57
2022/09/29 03:16:01;;;;;;;10.65;8.65;;;;;;;9.00;66.24;99898.09;5091542;28;20096;-57
2022/09/29 03:18:27;;;;;;;10.27;9.00;;;;;;;8.96;66.19;99896.94;5088498;28;20020;-57
2022/09/29 03:20:54;;;;;;;10.80;9.10;;;;;;;8.90;65.66;99891.63;5081624;28;20368;-57
2022/09/29 03:23:19;;;;;;;9.82;8.82;;;;;;;8.91;65.81;99899.66;5081561;28;20037;-57
2022/09/29 03:25:44;;;;;;;10.20;8.93;;;;;;;8.93;66.19;99897.47;5090102;28;20036;-57
2022/09/29 03:28:10;;;;;;;10.00;9.00;;;;;;;8.87;65.86;99898.53;5077591;28;20020;-57
2022/09/29 03:30:35;;;;;;;10.15;9.10;;;;;;;8.86;65.40;99905.16;5093227;28;20105;-57
2022/09/29 03:33:00;;;;;;;9.48;8.57;;;;;;;8.85;65.32;99896.03;5083075;28;20036;-57
2022/09/29 03:35:26;;;;;;;9.90;8.43;;;;;;;8.83;65.63;99891.84;5088167;28;20028;-57
2022/09/29 03:37:56;;;;;;;9.68;8.55;;;;;;;8.82;65.88;99890.19;5077550;28;20411;-57
2022/09/29 03:40:21;;;;;;;10.80;8.88;;;;;;;8.79;65.50;99899.00;5082314;28;20069;-57
2022/09/29 03:42:46;;;;;;;9.77;8.82;;;;;;;8.79;65.93;99899.00;5085611;28;20025;-57
2022/09/29 03:45:12;;;;;;;10.85;8.73;;;;;;;8.77;65.91;99904.81;5084276;28;20032;-57
2022/09/29 03:47:37;;;;;;;9.50;8.60;;;;;;;8.77;66.01;99904.81;5093284;28;20040;-57
2022/09/29 03:50:02;;;;;;;10.55;9.38;;;;;;;8.74;66.03;99902.59;5077350;28;20028;-57
2022/09/29 03:52:28;;;;;;;10.27;8.93;;;;;;;8.77;65.73;99898.47;5088143;28;20020;-57
2022/09/29 03:54:53;;;;;;;10.13;9.10;;;;;;;8.73;66.25;99898.16;5082399;28;20061;-57
2022/09/29 03:57:18;;;;;;;10.38;9.05;;;;;;;8.69;65.26;99901.72;5080966;28;20036;-57
2022/09/29 03:59:44;;;;;;;9.88;8.88;;;;;;;8.69;66.01;99901.72;5087671;28;20032;-57
2022/09/29 04:02:09;;;;;;;9.90;8.90;;;;;;;8.71;65.64;99905.03;5089888;28;20021;-57
2022/09/29 04:04:34;;;;;;;10.13;9.13;;;;;;;8.69;66.08;99904.50;5080410;28;20020;-57
2022/09/29 04:06:59;;;;;;;9.20;8.38;;;;;;;8.64;66.28;99910.78;5083555;28;20029;-57
2022/09/29 04:09:25;;;;;;;10.27;9.27;;;;;;;8.64;66.50;99909.94;5086773;28;20024;-58
2022/09/29 04:11:50;;;;;;;10.18;9.05;;;;;;;8.58;65.94;99912.69;5076909;28;20020;-58
2022/09/29 04:14:15;;;;;;;11.25;9.52;;;;;;;8.57;65.42;99916.56;5089779;28;20060;-58
2022/09/29 04:16:41;;;;;;;10.07;9.07;;;;;;;8.56;65.99;99914.88;5092885;28;20069;-58
2022/09/29 04:19:06;;;;;;;10.50;9.27;;;;;;;8.57;65.62;99912.97;5077749;28;20499;-58
2022/09/29 04:21:31;;;;;;;10.18;8.88;;;;;;;8.52;65.77;99913.72;5082633;28;20466;-58
2022/09/29 04:23:56;;;;;;;10.52;8.98;;;;;;;8.50;65.70;99920.63;5075956;28;20024;-58
2022/09/29 04:26:22;;;;;;;9.98;8.98;;;;;;;8.47;65.71;99919.22;5088096;28;20031;-57
2022/09/29 04:28:47;;;;;;;9.50;8.52;;;;;;;8.51;66.32;99928.66;5079919;28;20077;-57
2022/09/29 04:31:15;;;;;;;11.48;8.93;;;;;;;8.44;65.58;99928.03;5093150;28;20040;-59
2022/09/29 04:33:40;;;;;;;10.15;8.88;;;;;;;8.43;65.88;99926.38;5077058;28;20475;-58
2022/09/29 04:36:06;;;;;;;10.40;9.02;;;;;;;8.42;65.65;99924.72;5088959;28;20121;-58
2022/09/29 04:38:31;;;;;;;12.80;9.05;;;;;;;8.39;65.59;99922.47;5078759;28;20020;-57
2022/09/29 04:40:58;;;;;;;10.27;9.27;;;;;;;8.40;65.55;99929.66;5083031;28;20028;-57
2022/09/29 04:43:23;;;;;;;9.63;8.63;;;;;;;8.37;65.94;99927.44;5082769;28;20035;-58
2022/09/29 04:45:48;;;;;;;10.32;9.32;;;;;;;8.38;66.00;99929.09;5085303;28;20028;-58
2022/09/29 04:48:14;;;;;;;11.68;9.48;;;;;;;8.35;66.16;99938.69;5075727;28;20024;-58
2022/09/29 04:50:40;;;;;;;10.52;9.45;;;;;;;8.33;66.06;99921.56;5082639;28;20071;-58
2022/09/29 04:53:06;;;;;;;9.75;8.75;;;;;;;8.36;66.04;99936.75;5076327;28;20431;-58
2022/09/29 04:55:31;;;;;;;10.90;8.85;;;;;;;8.32;65.65;99936.44;5086374;28;20498;-58
2022/09/29 04:57:56;;;;;;;9.88;9.00;;;;;;;8.35;66.66;99935.09;5074829;28;20060;-58
2022/09/29 05:00:22;;;;;;;10.68;9.63;;;;;;;8.31;65.93;99934.78;5086246;28;20024;-55
2022/09/29 05:02:50;;;;;;;10.70;9.60;;;;;;;8.29;66.33;99933.38;5084539;28;20051;-56
2022/09/29 05:05:15;;;;;;;12.70;9.95;;;;;;;8.28;66.25;99938.06;5055731;28;20039;-57
2022/09/29 05:07:40;;;;;;;11.02;9.23;;;;;;;8.27;66.01;99943.88;5074556;28;20032;-57
2022/09/29 05:10:07;;;;;;;10.65;9.63;;;;;;;8.26;65.85;99943.03;5092034;28;20031;-58
2022/09/29 05:12:33;;;;;;;11.18;10.07;;;;;;;8.25;66.04;99946.91;5092904;28;20061;-57
2022/09/29 05:14:58;;;;;;;10.13;9.13;;;;;;;8.27;66.38;99957.69;5093088;28;20027;-57
2022/09/29 05:17:23;;;;;;;10.60;9.48;;;;;;;8.21;65.78;99953.19;5093433;28;20036;-57
2022/09/29 05:19:49;;;;;;;10.68;9.57;;;;;;;8.19;65.80;99958.16;5090998;28;20047;-58
2022/09/29 05:22:14;;;;;;;10.90;9.18;;;;;;;8.19;66.07;99964.53;5059787;28;20039;-58
2022/09/29 05:24:39;;;;;;;10.90;9.63;;;;;;;8.17;65.43;99961.16;5078964;28;20051;-58
2022/09/29 05:27:05;;;;;;;10.40;9.40;;;;;;;8.18;66.36;99970.31;5082390;28;20051;-58
2022/09/29 05:29:30;;;;;;;11.02;9.85;;;;;;;8.13;66.29;99965.53;5085886;28;20479;-57
2022/09/29 05:31:56;;;;;;;10.95;9.40;;;;;;;8.16;65.73;99967.78;5075596;28;20060;-57
2022/09/29 05:34:21;;;;;;;12.25;9.77;;;;;;;8.17;66.39;99971.38;5084727;28;20073;-57
2022/09/29 05:36:46;;;;;;;11.52;10.30;;;;;;;8.14;66.24;99969.16;5085290;28;20491;-57
2022/09/29 05:39:11;;;;;;;12.25;11.02;;;;;;;8.12;66.48;99969.41;5064447;28;20027;-57
2022/09/29 05:41:39;;;;;;;11.63;10.43;;;;;;;8.11;65.94;99979.63;5086660;28;20490;-56
2022/09/29 05:44:05;;;;;;;13.23;10.70;;;;;;;8.15;66.28;99973.59;5075910;28;20085;-57
2022/09/29 05:46:30;;;;;;;11.43;10.23;;;;;;;8.11;66.19;99976.88;5086973;28;20016;-57
2022/09/29 05:48:57;;;;;;;16.58;10.68;;;;;;;8.09;66.13;99976.28;5079498;28;20039;-57
2022/09/29 05:51:23;;;;;;;12.15;10.43;;;;;;;8.08;66.31;99980.13;5092946;28;20044;-57
2022/09/29 05:53:50;;;;;;;13.00;11.20;;;;;;;8.09;66.63;99979.03;5075698;28;20124;-57
2022/09/29 05:56:21;;;;;;;12.80;11.10;;;;;;;8.07;66.50;99981.25;5089048;28;20198;-57
2022/09/29 05:58:47;;;;;;;15.95;11.45;;;;;;;8.06;66.86;99985.09;5079518;28;20024;-57
2022/09/29 06:01:17;;;;;;;13.80;11.05;;;;;;;8.08;66.99;99990.38;5080752;28;20037;-57
2022/09/29 06:03:43;;;;;;;12.32;10.85;;;;;;;8.06;66.91;99981.50;5083809;28;20025;-58
2022/09/29 06:06:14;;;;;;;14.02;11.50;;;;;;;8.08;67.08;99993.97;5090102;28;20108;-58
2022/09/29 06:08:43;;;;;;;12.80;11.30;;;;;;;8.11;67.01;99996.22;5077951;28;20035;-58
2022/09/29 06:11:14;;;;;;;17.77;11.40;;;;;;;8.15;67.34;99991.00;5085727;28;20043;-58
2022/09/29 06:13:42;;;;;;;14.10;11.10;;;;;;;8.15;67.48;99995.72;5092286;28;20040;-58
2022/09/29 06:16:09;;;;;;;13.27;11.65;;;;;;;8.17;67.13;100002.63;5064721;28;20032;-58
2022/09/29 06:18:35;;;;;;;14.48;11.32;;;;;;;8.15;67.30;100002.06;5086770;28;20479;-58
2022/09/29 06:21:02;;;;;;;14.68;11.25;;;;;;;8.13;67.65;99993.19;5069479;28;20036;-58
2022/09/29 06:23:28;;;;;;;15.15;11.75;;;;;;;8.15;67.47;99996.53;5051760;28;20037;-58
2022/09/29 06:25:57;;;;;;;16.88;12.85;;;;;;;8.22;68.83;100005.47;5051729;28;20028;-57
2022/09/29 06:28:23;;;;;;;15.05;12.40;;;;;;;8.21;68.86;99997.41;5090498;28;20086;-57
2022/09/29 06:30:48;;;;;;;15.93;12.85;;;;;;;8.26;69.12;100003.03;5091974;28;20044;-57
2022/09/29 06:33:14;;;;;;;14.65;12.68;;;;;;;8.27;69.85;100001.94;5092085;28;20024;-57
2022/09/29 06:38:30;;;;;;;22.15;13.25;;;;;;;8.34;69.53;100011.69;5056280;28;20051;-57
2022/09/29 06:40:55;;;;;;;23.77;13.68;;;;;;;8.29;69.84;100021.84;5053719;28;20459;-57
2022/09/29 06:43:20;;;;;;;21.85;14.18;;;;;;;8.32;69.57;100019.41;5067820;28;20034;-57
2022/09/29 06:45:46;;;;;;;19.85;13.88;;;;;;;8.39;69.58;100029.47;5083102;28;20028;-57
2022/09/29 06:48:11;;;;;;;20.48;13.98;;;;;;;8.43;69.84;100020.38;5077614;28;20400;-57
2022/09/29 06:50:36;;;;;;;19.90;13.52;;;;;;;8.40;70.33;100026.44;5087281;28;20123;-57
2022/09/29 06:53:01;;;;;;;18.58;13.55;;;;;;;8.43;70.62;100028.69;5075412;28;20032;-57
2022/09/29 06:55:27;;;;;;;18.08;13.73;;;;;;;8.47;70.22;100032.59;5081421;28;20058;-57
2022/09/29 06:57:53;;;;;;;20.10;14.85;;;;;;;8.49;71.04;100024.91;5082451;28;20020;-57
2022/09/29 07:00:18;;;;;;;22.98;13.73;;;;;;;8.56;70.51;100028.28;5087623;28;20082;-57
2022/09/29 07:02:45;;;;;;;15.85;14.15;;;;;;;8.60;70.37;100029.41;5087510;28;20490;-57
2022/09/29 07:05:10;;;;;;;18.25;14.52;;;;;;;8.58;70.32;100028.03;5071410;28;20107;-57
2022/09/29 07:07:36;;;;;;;17.73;14.23;;;;;;;8.62;70.77;100037.47;5090374;28;20111;-57
2022/09/29 07:10:01;;;;;;;16.45;13.70;;;;;;;8.65;70.82;100045.25;5085658;28;20592;-57
2022/09/29 07:12:26;;;;;;;18.63;13.77;;;;;;;8.71;70.85;100037.84;5090914;28;20028;-57
2022/09/29 07:14:51;;;;;;;16.73;13.18;;;;;;;8.77;70.79;100042.34;5075005;28;20043;-57
2022/09/29 07:17:17;;;;;;;16.25;13.13;;;;;;;8.77;70.65;100045.94;5088512;28;20044;-57
2022/09/29 07:19:42;;;;;;;22.00;13.65;;;;;;;8.83;70.92;100047.66;5074704;28;20028;-57
2022/09/29 07:22:08;;;;;;;16.63;13.32;;;;;;;8.90;70.82;100052.16;5081967;28;20112;-57
2022/09/29 07:24:34;;;;;;;18.23;13.27;;;;;;;8.97;71.09;100058.31;5088102;28;20051;-57
2022/09/29 07:26:59;;;;;;;16.98;13.65;;;;;;;8.97;71.36;100059.13;5090526;28;20060;-57
2022/09/29 07:29:25;;;;;;;15.77;13.80;;;;;;;9.04;71.25;100062.53;5082570;28;20048;-57
2022/09/29 07:31:51;;;;;;;17.92;13.80;;;;;;;9.16;70.15;100061.53;5083298;28;20059;-57
2022/09/29 07:34:17;;;;;;;16.35;13.05;;;;;;;9.18;70.45;100062.94;5081074;28;20025;-57
2022/09/29 07:36:42;;;;;;;19.85;13.13;;;;;;;9.24;70.24;100061.06;5090874;28;20039;-57
2022/09/29 07:39:08;;;;;;;15.25;13.35;;;;;;;9.32;70.18;100068.88;5081580;28;20036;-57
2022/09/29 07:41:33;;;;;;;18.45;13.48;;;;;;;9.41;70.25;100070.03;5086528;28;20039;-57
2022/09/29 07:43:59;;;;;;;15.05;13.25;;;;;;;9.54;70.27;100075.13;5085777;28;20028;-57
2022/09/29 07:46:25;;;;;;;17.27;13.65;;;;;;;9.65;70.64;100070.50;5094500;28;20020;-57
2022/09/29 07:48:50;;;;;;;19.00;13.57;;;;;;;9.75;70.44;100075.31;5095409;28;20020;-57
2022/09/29 07:51:18;;;;;;;16.73;13.60;;;;;;;9.84;70.05;100074.53;5095386;28;20515;-57
2022/09/29 07:53:44;;;;;;;16.58;13.15;;;;;;;9.97;69.22;100070.44;5094304;28;20097;-57
2022/09/29 07:56:17;;;;;;;16.88;12.73;;;;;;;10.08;69.61;100080.47;5094994;28;20455;-57
2022/09/29 07:58:43;;;;;;;18.45;13.43;;;;;;;10.22;70.01;100077.25;5070441;28;20381;-58
2022/09/29 08:01:11;;;;;;;17.02;14.10;;;;;;;10.35;69.21;100085.09;5053592;28;20119;-58
2022/09/29 08:03:41;;;;;;;17.33;13.20;;;;;;;10.43;68.36;100081.78;5054642;28;20033;-58
2022/09/29 08:06:07;;;;;;;16.52;13.27;;;;;;;10.57;68.43;100091.28;5054563;28;20017;-58
2022/09/29 08:08:39;;;;;;;17.05;13.18;;;;;;;10.74;68.25;100090.25;5053530;28;20404;-57
2022/09/29 08:11:13;;;;;;;15.85;13.27;;;;;;;10.84;67.96;100100.53;5054563;28;20025;-58
2022/09/29 08:13:38;;;;;;;15.93;13.52;;;;;;;10.94;67.97;100093.06;5070139;28;20032;-58
2022/09/29 08:16:06;;;;;;;18.52;12.95;;;;;;;11.02;67.50;100092.53;5055904;28;20025;-58
2022/09/29 08:18:33;;;;;;;14.80;12.23;;;;;;;11.16;67.04;100105.88;5054531;28;20029;-58
2022/09/29 08:20:59;;;;;;;19.00;12.35;;;;;;;11.22;66.58;100102.00;5053901;28;20029;-58
2022/09/29 08:23:24;;;;;;;14.27;12.05;;;;;;;11.15;66.60;100106.97;5054466;28;20048;-58
2022/09/29 08:25:58;;;;;;;305.45;34.90;;;;;;;11.31;70.39;100120.59;5054108;28;20365;-58
2022/09/29 08:28:23;;;;;;;16.05;12.93;;;;;;;11.00;67.74;100113.34;5053113;28;20047;-58
2022/09/29 08:30:49;;;;;;;19.40;13.75;;;;;;;10.89;68.25;100112.50;5054104;28;20488;-57
2022/09/29 08:33:15;;;;;;;17.83;12.43;;;;;;;10.77;68.06;100118.28;5054011;28;20451;-57
2022/09/29 08:35:40;;;;;;;16.05;12.77;;;;;;;10.68;67.66;100119.91;5053309;28;20040;-57
2022/09/29 08:38:06;;;;;;;17.70;12.45;;;;;;;10.63;67.66;100122.66;5053668;28;20485;-57
2022/09/29 08:40:31;;;;;;;14.38;12.88;;;;;;;10.60;67.68;100128.75;5053866;28;20040;-58
2022/09/29 08:43:03;;;;;;;17.40;13.20;;;;;;;10.58;68.02;100133.75;5075565;28;20055;-57
2022/09/29 08:45:33;;;;;;;15.63;13.27;;;;;;;10.61;68.33;100132.34;5062793;28;20400;-57
2022/09/29 08:48:12;;;;;;;16.63;13.02;;;;;;;10.65;68.11;100130.72;5054050;28;20021;-57
2022/09/29 08:50:43;;;;;;;16.65;13.13;;;;;;;10.65;67.83;100127.94;5053026;28;20111;-57
2022/09/29 08:53:14;;;;;;;20.48;13.05;;;;;;;10.69;68.52;100137.38;5053775;28;20033;-58
2022/09/29 08:55:46;;;;;;;19.17;13.23;;;;;;;10.75;68.62;100139.09;5053530;28;20668;-57
2022/09/29 08:58:14;;;;;;;14.20;11.90;;;;;;;10.79;68.61;100137.44;5083499;28;20108;-57
2022/09/29 09:00:48;;;;;;;16.95;12.52;;;;;;;10.79;68.83;100140.22;5093983;28;20028;-57
2022/09/29 09:03:23;;;;;;;14.80;13.20;;;;;;;10.84;68.19;100136.63;5060699;28;20495;-57
2022/09/29 09:06:10;;;;;;;16.52;13.13;;;;;;;10.89;68.94;100145.81;5053449;28;20033;-57
2022/09/29 09:09:06;;;;;;;17.63;12.15;;;;;;;10.97;68.75;100142.50;5053606;28;20048;-58
2022/09/29 09:11:46;;;;;;;14.73;12.20;;;;;;;11.02;68.52;100148.06;5055490;28;20116;-57
2022/09/29 09:14:15;;;;;;;15.93;12.43;;;;;;;11.09;68.73;100149.75;5053476;28;20040;-57
2022/09/29 09:17:11;;;;;;;14.05;11.73;;;;;;;11.17;68.74;100150.06;5053443;28;20072;-57
2022/09/29 09:20:01;;;;;;;17.63;12.40;;;;;;;11.24;68.84;100158.13;5053248;28;20033;-57
2022/09/29 09:22:37;;;;;;;15.90;12.63;;;;;;;11.26;68.56;100156.72;5052896;28;20036;-57
2022/09/29 09:25:22;;;;;;;15.48;12.27;;;;;;;11.39;68.41;100155.34;5052508;28;20031;-57
2022/09/29 09:27:58;;;;;;;17.15;13.10;;;;;;;11.63;69.16;100164.03;5052679;28;20032;-57
2022/09/29 09:30:29;;;;;;;12.75;11.05;;;;;;;11.79;66.94;100153.75;5055421;28;20052;-57
2022/09/29 09:32:59;;;;;;;14.88;11.23;;;;;;;11.86;67.25;100156.25;5063144;28;20024;-57
2022/09/29 09:35:44;;;;;;;14.18;10.88;;;;;;;11.92;66.84;100158.75;5085111;28;20050;-57
2022/09/29 09:38:27;;;;;;;13.63;11.30;;;;;;;12.08;68.00;100156.78;5086247;28;20107;-57
2022/09/29 09:40:55;;;;;;;14.00;10.93;;;;;;;12.19;67.08;100155.66;5075335;28;20043;-57
2022/09/29 09:43:33;;;;;;;15.73;11.75;;;;;;;12.24;66.87;100157.59;5085760;28;20451;-57
2022/09/29 09:46:19;;;;;;;11.93;9.93;;;;;;;12.46;66.49;100158.13;5084127;28;20067;-57
2022/09/29 09:49:09;;;;;;;12.18;9.70;;;;;;;12.65;65.96;100154.69;5075227;28;20378;-57
2022/09/29 09:51:53;;;;;;;10.85;8.02;;;;;;;12.82;65.14;100148.81;5083839;28;20071;-57
2022/09/29 09:54:28;;;;;;;9.50;7.32;;;;;;;12.95;64.98;100151.78;5077973;28;20047;-57
2022/09/29 09:56:56;;;;;;;8.27;7.13;;;;;;;13.10;63.87;100159.25;5086150;28;20028;-57
2022/09/29 09:59:49;;;;;;;9.75;6.93;;;;;;;13.26;63.81;100157.22;5090991;28;20047;-57
2022/09/29 10:02:20;;;;;;;10.27;7.00;;;;;;;13.37;63.73;100160.78;5078160;28;20384;-57
2022/09/29 10:04:53;;;;;;;10.93;6.65;;;;;;;13.49;62.79;100164.88;5089251;28;20115;-57
2022/09/29 10:07:19;;;;;;;;;;;;;;;13.58;64.41;100159.50;5078790;28;20028;-57
2022/09/29 10:09:45;;;;;;;7.93;6.07;;;;;;;13.68;61.40;100162.25;5082136;28;19913;-57
2022/09/29 10:12:16;;;;;;;8.32;6.63;;;;;;;13.74;61.31;100161.06;5086024;28;20024;-57
2022/09/29 10:14:50;;;;;;;10.82;6.10;;;;;;;13.78;60.71;100158.53;5089165;28;20491;-57
2022/09/29 10:17:19;;;;;;;6.55;5.53;;;;;;;13.87;61.00;100161.50;5086221;28;20033;-57
2022/09/29 10:19:57;;;;;;;8.75;5.68;;;;;;;13.99;61.36;100157.25;5082313;28;20028;-57
2022/09/29 10:22:24;;;;;;;7.05;5.82;;;;;;;14.03;60.45;100165.00;5076108;28;20063;-57
2022/09/29 10:25:04;;;;;;;8.52;5.95;;;;;;;14.12;60.23;100161.31;5070767;28;20037;-58
2022/09/29 10:27:30;;;;;;;7.80;5.18;;;;;;;14.30;60.79;100170.06;5086771;28;20028;-57
2022/09/29 10:29:57;;;;;;;4.00;3.45;;;;;;;14.27;58.55;100168.69;5073376;28;20049;-57
2022/09/29 10:32:37;;;;;;;4.20;3.78;;;;;;;14.36;59.14;100174.47;5052165;28;20032;-57
2022/09/29 10:35:14;;;;;;;4.80;3.92;;;;;;;14.47;59.14;100171.28;5051303;28;20078;-57
2022/09/29 10:37:46;;;;;;;5.50;3.90;;;;;;;14.54;59.44;100175.69;5052542;28;20017;-57
2022/09/29 10:40:20;;;;;;;4.88;4.10;;;;;;;14.61;58.72;100173.38;5052424;28;20025;-56
2022/09/29 10:42:49;;;;;;;3.63;2.97;;;;;;;14.63;57.25;100185.94;5074738;28;20077;-58
2022/09/29 10:45:26;;;;;;;3.95;2.80;;;;;;;14.63;58.26;100176.72;5091321;28;20051;-57
2022/09/29 10:48:00;;;;;;;4.70;3.83;;;;;;;14.70;58.01;100180.81;5059269;28;20021;-57
2022/09/29 10:50:47;;;;;;;3.50;3.20;;;;;;;14.71;57.46;100173.28;5080935;28;20478;-57
2022/09/29 10:53:39;;;;;;;4.18;3.78;;;;;;;14.71;58.35;100174.09;5081022;28;20016;-57
2022/09/29 10:56:26;;;;;;;3.38;2.70;;;;;;;14.74;58.07;100172.69;5063550;28;20040;-57
2022/09/29 10:58:54;;;;;;;4.03;3.22;;;;;;;14.84;57.70;100183.72;5091856;28;20039;-57
2022/09/29 11:01:20;;;;;;;4.85;3.67;;;;;;;14.92;57.22;100180.25;5096041;28;20123;-57
2022/09/29 11:03:51;;;;;;;4.43;2.92;;;;;;;14.95;56.49;100184.44;5077362;28;20062;-57
2022/09/29 11:06:26;;;;;;;4.53;3.78;;;;;;;14.96;57.52;100174.91;5082569;28;20112;-57
2022/09/29 11:09:02;;;;;;;4.82;3.80;;;;;;;14.97;57.01;100190.53;5083817;28;20472;-57
2022/09/29 11:11:31;;;;;;;5.10;3.28;;;;;;;15.05;57.93;100183.47;5091428;28;20028;-57
2022/09/29 11:13:58;;;;;;;5.53;3.53;;;;;;;15.02;57.21;100184.91;5090435;28;20031;-57
2022/09/29 11:16:36;;;;;;;5.90;3.88;;;;;;;15.04;57.15;100185.44;5092757;28;20024;-57
2022/09/29 11:19:08;;;;;;;4.45;3.65;;;;;;;14.91;56.51;100187.00;5081380;28;20038;-57
2022/09/29 11:22:05;;;;;;;4.32;3.92;;;;;;;14.77;55.72;100185.22;5092153;28;20031;-57
2022/09/29 11:25:07;;;;;;;5.38;3.70;;;;;;;14.77;57.70;100185.22;5037196;28;20030;-57
2022/09/29 11:27:51;;;;;;;5.95;3.70;;;;;;;14.77;56.71;100182.41;5091356;28;20032;-57
2022/09/29 11:30:22;;;;;;;3.90;3.40;;;;;;;14.81;56.63;100192.69;5076657;28;20055;-57
2022/09/29 11:33:04;;;;;;;4.90;3.78;;;;;;;14.94;57.10;100185.56;5078810;28;20040;-57
2022/09/29 11:35:41;;;;;;;4.22;3.45;;;;;;;14.94;56.79;100186.41;5088708;28;20046;-57
2022/09/29 11:38:15;;;;;;;6.85;3.78;;;;;;;14.97;58.01;100188.59;5080064;28;20040;-57
2022/09/29 11:40:52;;;;;;;5.63;4.28;;;;;;;15.03;58.21;100185.75;5080489;28;20025;-57
2022/09/29 11:43:41;;;;;;;5.00;4.03;;;;;;;14.96;57.76;100198.09;5085762;28;20043;-57
2022/09/29 11:46:26;;;;;;;4.93;3.80;;;;;;;14.85;57.66;100195.72;5059308;28;20031;-57